createdAt,value
2019-05-06T00:02:08.284Z,100157.36
2019-05-06T00:04:39.960Z,100162.05
2019-05-06T00:07:13.699Z,100161.42
2019-05-06T00:09:44.871Z,100155.77
2019-05-06T00:12:16.414Z,100152.28
2019-05-06T00:14:49.560Z,100153.25
2019-05-06T00:17:21.085Z,100152.16
2019-05-06T00:19:53.970Z,100153.48
2019-05-06T00:22:27.629Z,100150.23
2019-05-06T00:25:00.984Z,100147.09
2019-05-06T00:27:34.346Z,100142.91
2019-05-06T00:30:07.502Z,100147.23
2019-05-06T00:32:39.289Z,100150.88
2019-05-06T00:35:10.947Z,100152.79
2019-05-06T00:37:44.217Z,100149.42
2019-05-06T00:40:26.503Z,100148.67
2019-05-06T00:42:59.754Z,100157.09
2019-05-06T00:45:31.342Z,100152.19
2019-05-06T00:48:04.617Z,100149.54
2019-05-06T00:50:36.277Z,100145.36
2019-05-06T00:53:09.435Z,100147.04
2019-05-06T00:55:40.945Z,100152.81
2019-05-06T00:58:14.208Z,100152.69
2019-05-06T01:00:46.021Z,100152.69
2019-05-06T01:03:17.886Z,100149.33
2019-05-06T01:05:49.533Z,100152.33
2019-05-06T01:08:21.107Z,100154.02
2019-05-06T01:10:54.536Z,100146.80
2019-05-06T01:13:39.526Z,100141.97
2019-05-06T01:16:12.677Z,100142.69
2019-05-06T01:18:44.184Z,100139.33
2019-05-06T01:21:15.670Z,100134.25
2019-05-06T01:23:54.275Z,100134.97
2019-05-06T01:26:26.289Z,100132.93
2019-05-06T01:28:57.752Z,100134.61
2019-05-06T01:31:42.215Z,100133.29
2019-05-06T01:34:04.344Z,100131.97
2019-05-06T01:36:36.840Z,100128.00
2019-05-06T01:39:13.865Z,100133.86
2019-05-06T01:41:47.217Z,100134.25
2019-05-06T01:44:19.171Z,100137.14
2019-05-06T01:46:50.698Z,100135.33
2019-05-06T01:49:24.352Z,100134.61
2019-05-06T01:51:56.051Z,100127.04
2019-05-06T01:54:27.668Z,100124.75
2019-05-06T01:56:59.320Z,100126.19
2019-05-06T01:59:30.828Z,100126.55
2019-05-06T02:02:04.232Z,100130.28
2019-05-06T02:04:35.625Z,100128.72
2019-05-06T02:07:07.107Z,100118.25
2019-05-06T02:09:38.797Z,100121.91
2019-05-06T02:12:10.361Z,100131.74
2019-05-06T02:14:43.711Z,100124.17
2019-05-06T02:17:15.626Z,100129.34
2019-05-06T02:19:47.388Z,100129.82
2019-05-06T02:22:24.631Z,100127.08
2019-05-06T02:24:58.012Z,100120.44
2019-05-06T02:27:31.251Z,100113.59
2019-05-06T02:30:05.483Z,100103.38
2019-05-06T02:32:39.119Z,100106.52
2019-05-06T02:35:27.829Z,100104.95
2019-05-06T02:38:00.231Z,100110.98
2019-05-06T02:40:33.247Z,100104.73
2019-05-06T02:43:05.222Z,100110.16
2019-05-06T02:45:36.923Z,100107.38
2019-05-06T02:48:10.246Z,100109.56
2019-05-06T02:50:46.266Z,100113.42
2019-05-06T02:53:19.613Z,100112.00
2019-05-06T02:55:53.100Z,100114.86
2019-05-06T02:58:24.707Z,100108.11
2019-05-06T03:00:56.476Z,100107.00
2019-05-06T03:03:29.650Z,100111.94
2019-05-06T03:06:03.792Z,100115.07
2019-05-06T03:08:34.820Z,100115.81
2019-05-06T03:11:06.502Z,100113.91
2019-05-06T03:13:43.438Z,100114.99
2019-05-06T03:16:23.550Z,100117.02
2019-05-06T03:18:59.147Z,100122.81
2019-05-06T03:21:37.347Z,100113.56
2019-05-06T03:24:23.630Z,100119.56
2019-05-06T03:26:57.331Z,100115.67
2019-05-06T03:29:33.167Z,100112.30
2019-05-06T03:32:06.753Z,100108.59
2019-05-06T03:34:58.667Z,100104.02
2019-05-06T03:37:16.258Z,100096.75
2019-05-06T03:39:44.692Z,100090.63
2019-05-06T03:42:16.958Z,100095.13
2019-05-06T03:44:53.448Z,100099.64
2019-05-06T03:47:43.322Z,100093.94
2019-05-06T03:50:15.129Z,100094.00
2019-05-06T03:52:56.034Z,100095.42
2019-05-06T03:55:46.475Z,100098.56
2019-05-06T03:58:23.589Z,100097.52
2019-05-06T04:00:54.535Z,100097.01
2019-05-06T04:03:42.467Z,100103.98
2019-05-06T04:06:05.186Z,100114.02
2019-05-06T04:08:38.607Z,100111.45
2019-05-06T04:11:13.622Z,100109.55
2019-05-06T04:13:48.273Z,100104.83
2019-05-06T04:16:29.017Z,100105.59
2019-05-06T04:19:04.161Z,100111.24
2019-05-06T04:21:53.291Z,100114.02
2019-05-06T04:24:39.434Z,100110.39
2019-05-06T04:27:33.480Z,100108.55
2019-05-06T04:30:08.257Z,100107.12
2019-05-06T04:32:43.161Z,100107.89
2019-05-06T04:35:16.807Z,100110.39
2019-05-06T04:37:49.052Z,100109.61
2019-05-06T04:40:23.887Z,100106.16
2019-05-06T04:42:55.859Z,100101.14
2019-05-06T04:45:27.931Z,100104.98
2019-05-06T04:48:03.311Z,100101.57
2019-05-06T04:50:36.883Z,100101.19
2019-05-06T04:53:08.677Z,100104.64
2019-05-06T04:55:43.318Z,100105.07
2019-05-06T04:58:16.411Z,100104.55
2019-05-06T05:00:53.357Z,100103.18
2019-05-06T05:03:24.214Z,100096.91
2019-05-06T05:05:56.113Z,100098.27
2019-05-06T05:08:39.351Z,100098.43
2019-05-06T05:11:25.217Z,100106.20
2019-05-06T05:14:04.672Z,100100.75
2019-05-06T05:16:42.077Z,100098.89
2019-05-06T05:19:15.673Z,100098.89
2019-05-06T05:21:47.352Z,100102.17
2019-05-06T05:24:24.883Z,100101.09
2019-05-06T05:26:56.579Z,100096.73
2019-05-06T05:29:32.385Z,100094.72
2019-05-06T05:32:06.266Z,100091.79
2019-05-06T05:34:40.730Z,100094.13
2019-05-06T05:37:14.442Z,100096.06
2019-05-06T05:39:48.707Z,100097.00
2019-05-06T05:42:38.054Z,100090.93
2019-05-06T05:45:10.358Z,100090.66
2019-05-06T05:47:44.616Z,100091.70
2019-05-06T05:50:24.209Z,100083.52
2019-05-06T05:52:57.478Z,100084.44
2019-05-06T05:55:34.720Z,100075.09
2019-05-06T05:58:06.364Z,100078.69
2019-05-06T06:00:39.562Z,100069.45
2019-05-06T06:03:12.634Z,100073.06
2019-05-06T06:05:45.372Z,100067.28
2019-05-06T06:08:17.739Z,100065.73
2019-05-06T06:10:53.640Z,100077.47
2019-05-06T06:13:27.090Z,100070.39
2019-05-06T06:16:17.141Z,100074.09
2019-05-06T06:19:07.092Z,100066.06
2019-05-06T06:21:40.256Z,100064.26
2019-05-06T06:24:17.939Z,100060.04
2019-05-06T06:26:51.955Z,100061.32
2019-05-06T06:29:25.381Z,100063.09
2019-05-06T06:32:05.745Z,100060.25
2019-05-06T06:34:43.217Z,100062.40
2019-05-06T06:37:19.555Z,100058.38
2019-05-06T06:39:52.923Z,100060.05
2019-05-06T06:42:24.907Z,100049.56
2019-05-06T06:44:59.318Z,100048.02
2019-05-06T06:47:33.108Z,100048.34
2019-05-06T06:50:06.078Z,100047.05
2019-05-06T06:52:42.085Z,100040.47
2019-05-06T06:55:28.163Z,100039.12
2019-05-06T06:58:13.539Z,100039.45
2019-05-06T07:01:07.935Z,100033.78
2019-05-06T07:03:43.167Z,100039.72
2019-05-06T07:06:17.088Z,100035.08
2019-05-06T07:08:51.777Z,100027.55
2019-05-06T07:11:24.912Z,100031.81
2019-05-06T07:13:58.933Z,100024.52
2019-05-06T07:16:32.976Z,100024.16
2019-05-06T07:19:04.535Z,100023.94
2019-05-06T07:21:38.586Z,100028.17
2019-05-06T07:24:13.121Z,100026.59
2019-05-06T07:26:47.359Z,100028.81
2019-05-06T07:29:25.735Z,100027.22
2019-05-06T07:31:53.668Z,100023.08
2019-05-06T07:34:26.554Z,100028.13
2019-05-06T07:37:03.517Z,100022.33
2019-05-06T07:39:38.177Z,100026.87
2019-05-06T07:42:15.140Z,100018.00
2019-05-06T07:44:51.681Z,100018.12
2019-05-06T07:47:28.127Z,100012.47
2019-05-06T07:50:02.251Z,100007.60
2019-05-06T07:52:33.323Z,100006.22
2019-05-06T07:55:06.642Z,100011.91
2019-05-06T08:23:42.833Z,99974.16
2019-05-06T08:26:24.072Z,99977.06
2019-05-06T08:28:57.661Z,99977.11
2019-05-06T08:31:29.575Z,99970.07
2019-05-06T08:34:03.555Z,99975.78
2019-05-06T08:36:43.470Z,99966.91
2019-05-06T08:39:16.580Z,99970.55
2019-05-06T08:41:54.038Z,99962.73
2019-05-06T08:44:25.573Z,99959.47
2019-05-06T08:46:57.095Z,99958.38
2019-05-06T08:49:33.976Z,99950.14
2019-05-06T08:52:08.555Z,99958.04
2019-05-06T08:54:48.038Z,99957.27
2019-05-06T08:57:19.684Z,99956.13
2019-05-06T08:59:53.680Z,99959.44
2019-05-06T09:02:27.791Z,99948.86
2019-05-06T09:05:03.068Z,99954.16
2019-05-06T09:07:34.840Z,99959.59
2019-05-06T09:10:06.486Z,99943.14
2019-05-06T09:12:42.537Z,99940.36
2019-05-06T09:15:16.153Z,99942.97
2019-05-06T09:17:52.479Z,99941.75
2019-05-06T09:20:23.866Z,99936.17
2019-05-06T09:22:55.467Z,99939.00
2019-05-06T09:25:32.320Z,99943.64
2019-05-06T09:28:05.577Z,99942.78
2019-05-06T09:30:39.598Z,99940.49
2019-05-06T09:33:12.918Z,99935.09
2019-05-06T09:35:45.705Z,99936.03
2019-05-06T09:38:17.397Z,99930.93
2019-05-06T09:40:52.409Z,99925.86
2019-05-06T09:43:27.925Z,99928.25
2019-05-06T09:46:02.153Z,99927.61
2019-05-06T09:48:42.817Z,99923.08
2019-05-06T09:51:22.230Z,99934.61
2019-05-06T09:54:12.759Z,99931.52
2019-05-06T09:56:49.245Z,99920.33
2019-05-06T09:59:23.441Z,99914.92
2019-05-06T10:01:56.942Z,99918.78
2019-05-06T10:04:28.463Z,99915.67
2019-05-06T10:07:02.820Z,99917.81
2019-05-06T10:09:38.318Z,99909.69
2019-05-06T10:12:09.858Z,99922.14
2019-05-06T10:14:43.313Z,99918.88
2019-05-06T10:17:16.139Z,99905.98
2019-05-06T10:19:51.512Z,99906.03
2019-05-06T10:22:26.224Z,99911.77
2019-05-06T10:24:58.073Z,99914.36
2019-05-06T10:27:31.335Z,99911.73
2019-05-06T10:30:12.572Z,99903.23
2019-05-06T10:32:49.576Z,99910.20
2019-05-06T10:35:22.499Z,99903.48
2019-05-06T10:38:07.037Z,99904.98
2019-05-06T10:41:00.100Z,99899.32
2019-05-06T10:43:32.555Z,99897.91
2019-05-06T10:46:08.402Z,99898.88
2019-05-06T10:48:42.257Z,99902.61
2019-05-06T10:51:22.759Z,99899.19
2019-05-06T10:53:59.171Z,99901.09
2019-05-06T10:56:49.089Z,99898.95
2019-05-06T10:59:12.846Z,99895.73
2019-05-06T11:01:48.577Z,99894.85
2019-05-06T11:04:22.558Z,99895.61
2019-05-06T11:06:54.174Z,99896.78
2019-05-06T11:09:25.763Z,99894.58
2019-05-06T11:11:57.179Z,99888.94
2019-05-06T11:14:29.415Z,99883.09
2019-05-06T11:17:04.859Z,99884.45
2019-05-06T11:19:34.552Z,99883.03
2019-05-06T11:22:09.008Z,99881.62
2019-05-06T11:24:43.004Z,99871.43
2019-05-06T11:27:28.062Z,99869.72
2019-05-06T11:29:49.263Z,99858.57
2019-05-06T11:32:28.834Z,99857.47
2019-05-06T11:35:03.703Z,99858.70
2019-05-06T11:37:50.079Z,99864.22
2019-05-06T11:40:24.709Z,99862.88
2019-05-06T11:42:56.471Z,99856.16
2019-05-06T11:45:28.121Z,99853.63
2019-05-06T11:47:59.744Z,99853.94
2019-05-06T11:50:33.302Z,99853.06
2019-05-06T11:53:04.964Z,99850.05
2019-05-06T11:55:38.949Z,99855.91
2019-05-06T11:58:28.449Z,99851.13
2019-05-06T12:01:03.082Z,99847.97
2019-05-06T12:03:36.566Z,99845.16
2019-05-06T12:06:09.361Z,99845.48
2019-05-06T12:08:43.020Z,99844.05
2019-05-06T12:11:14.219Z,99844.96
2019-05-06T12:13:45.848Z,99841.77
2019-05-06T12:16:18.833Z,99835.74
2019-05-06T12:18:52.940Z,99834.28
2019-05-06T12:21:26.393Z,99822.03
2019-05-06T12:23:58.114Z,99817.75
2019-05-06T12:26:32.217Z,99820.64
2019-05-06T12:29:03.925Z,99825.58
2019-05-06T12:31:36.715Z,99820.13
2019-05-06T12:34:11.441Z,99821.19
2019-05-06T12:36:44.144Z,99820.36
2019-05-06T12:39:19.483Z,99823.94
2019-05-06T12:42:08.328Z,99819.49
2019-05-06T12:44:40.060Z,99819.19
2019-05-06T12:47:22.840Z,99819.33
2019-05-06T12:49:54.375Z,99818.86
2019-05-06T12:52:25.932Z,99807.84
2019-05-06T12:55:16.988Z,99807.44
2019-05-06T12:57:35.181Z,99804.74
2019-05-06T13:00:13.031Z,99805.93
2019-05-06T13:02:44.073Z,99805.04
2019-05-06T13:05:16.572Z,99801.22
2019-05-06T13:07:48.093Z,99803.76
2019-05-06T13:10:23.143Z,99807.31
2019-05-06T13:12:58.646Z,99808.15
2019-05-06T13:15:31.658Z,99800.86
2019-05-06T13:18:07.061Z,99799.72
2019-05-06T13:20:37.128Z,99801.58
2019-05-06T13:23:20.662Z,99795.41
2019-05-06T13:25:47.325Z,99794.06
2019-05-06T13:28:22.416Z,99787.75
2019-05-06T13:30:54.901Z,99784.64
2019-05-06T13:33:33.859Z,99790.50
2019-05-06T13:36:04.246Z,99791.22
2019-05-06T13:38:35.826Z,99780.98
2019-05-06T13:41:07.402Z,99780.83
2019-05-06T13:43:53.846Z,99776.00
2019-05-06T13:46:28.696Z,99780.56
2019-05-06T13:49:02.788Z,99781.48
2019-05-06T13:51:42.775Z,99774.50
2019-05-06T13:54:15.974Z,99771.40
2019-05-06T13:56:49.213Z,99770.17
2019-05-06T13:59:20.690Z,99764.25
2019-05-06T14:01:54.751Z,99767.63
2019-05-06T14:04:26.517Z,99770.03
2019-05-06T14:06:58.968Z,99773.11
2019-05-06T14:09:38.992Z,99769.16
2019-05-06T14:12:05.086Z,99771.22
2019-05-06T14:14:36.589Z,99762.48
2019-05-06T14:17:08.724Z,99764.34
2019-05-06T14:19:42.972Z,99759.89
2019-05-06T14:22:14.669Z,99764.62
2019-05-06T14:24:47.760Z,99765.73
2019-05-06T14:27:22.015Z,99755.42
2019-05-06T14:29:55.995Z,99757.59
2019-05-06T14:32:27.535Z,99755.90
2019-05-06T14:46:49.971Z,99746.66
2019-05-06T14:49:22.463Z,99741.19
2019-05-06T14:52:09.552Z,99739.56
2019-05-06T14:54:53.184Z,99732.53
2019-05-06T14:57:32.270Z,99723.45
2019-05-06T15:00:04.413Z,99725.27
2019-05-06T15:02:38.465Z,99722.20
2019-05-06T15:05:10.073Z,99719.00
2019-05-06T15:07:42.162Z,99714.97
2019-05-06T15:10:22.169Z,99713.63
2019-05-06T15:13:02.149Z,99709.13
2019-05-06T15:15:35.511Z,99711.66
2019-05-06T15:18:07.677Z,99705.58
2019-05-06T15:28:28.029Z,99706.11
2019-05-06T15:31:03.241Z,99705.86
2019-05-06T15:33:36.419Z,99702.34
2019-05-06T15:55:32.157Z,99699.80
2019-05-06T15:58:04.109Z,99695.34
2019-05-06T16:00:36.443Z,99700.73
2019-05-06T16:03:08.564Z,99700.59
2019-05-06T16:09:37.294Z,99698.88
2019-05-06T16:12:08.849Z,99695.00
2019-05-06T16:14:42.452Z,99696.22
2019-05-06T16:17:15.303Z,99697.13
2019-05-06T16:19:46.771Z,99687.16
2019-05-06T16:22:22.402Z,99693.45
2019-05-06T16:24:55.026Z,99696.02
2019-05-06T16:27:26.622Z,99695.75
2019-05-06T16:29:58.196Z,99692.48
2019-05-06T16:32:29.678Z,99689.34
2019-05-06T16:35:02.449Z,99694.27
2019-05-06T16:37:34.077Z,99699.66
2019-05-06T16:40:08.316Z,99702.40
2019-05-06T16:42:45.448Z,99703.13
2019-05-06T16:45:14.572Z,99706.48
2019-05-06T16:47:46.124Z,99704.81
2019-05-06T16:50:19.300Z,99702.68
2019-05-06T16:52:52.688Z,99703.70
2019-05-06T16:55:29.176Z,99707.20
2019-05-06T16:58:05.375Z,99705.86
2019-05-06T17:00:39.243Z,99702.37
2019-05-06T17:03:14.847Z,99699.19
2019-05-06T17:06:04.124Z,99698.82
2019-05-06T17:08:37.475Z,99703.14
2019-05-06T17:11:09.092Z,99698.45
2019-05-06T17:13:42.548Z,99704.11
2019-05-06T17:16:18.680Z,99706.27
2019-05-06T17:18:56.934Z,99706.44
2019-05-06T17:21:28.914Z,99705.74
2019-05-06T17:24:02.389Z,99707.72
2019-05-06T17:26:34.283Z,99714.53
2019-05-06T17:29:22.720Z,99709.69
2019-05-06T17:31:58.372Z,99707.83
2019-05-06T17:34:31.959Z,99710.72
2019-05-06T17:37:08.421Z,99713.25
2019-05-06T17:39:42.528Z,99715.05
2019-05-06T17:42:15.871Z,99710.69
2019-05-06T17:44:53.402Z,99719.30
2019-05-06T17:47:34.439Z,99726.55
2019-05-06T17:50:12.304Z,99722.81
2019-05-06T17:52:46.220Z,99719.10
2019-05-06T17:55:22.563Z,99721.76
2019-05-06T17:57:54.952Z,99726.20
2019-05-06T18:00:26.587Z,99723.16
2019-05-06T18:02:59.237Z,99724.95
2019-05-06T18:05:33.640Z,99721.94
2019-05-06T18:08:08.735Z,99726.55
2019-05-06T18:10:43.040Z,99719.73
2019-05-06T18:13:19.453Z,99723.89
2019-05-06T18:15:53.133Z,99725.22
2019-05-06T18:18:31.058Z,99730.55
2019-05-06T18:21:03.698Z,99730.21
2019-05-06T18:23:36.169Z,99733.31
2019-05-06T18:26:08.121Z,99730.70
2019-05-06T18:28:43.082Z,99731.80
2019-05-06T18:31:15.259Z,99730.13
2019-05-06T18:33:47.100Z,99723.62
2019-05-06T18:36:22.714Z,99723.56
2019-05-06T18:38:54.548Z,99723.91
2019-05-06T18:41:29.163Z,99724.66
2019-05-06T18:44:02.207Z,99721.83
2019-05-06T18:46:33.783Z,99723.75
2019-05-06T18:49:05.358Z,99723.88
2019-05-06T18:51:37.258Z,99720.38
2019-05-06T18:54:12.351Z,99721.14
2019-05-06T18:56:44.844Z,99725.23
2019-05-06T18:59:16.405Z,99726.87
2019-05-06T19:01:49.257Z,99718.87
2019-05-06T19:04:27.226Z,99720.82
2019-05-06T19:07:09.197Z,99723.88
2019-05-06T19:09:45.544Z,99724.72
2019-05-06T19:12:30.062Z,99716.20
2019-05-06T19:14:52.704Z,99722.47
2019-05-06T19:17:24.293Z,99725.44
2019-05-06T19:19:55.846Z,99723.30
2019-05-06T19:22:27.914Z,99721.98
2019-05-06T19:24:59.588Z,99720.19
2019-05-06T19:27:33.271Z,99728.41
2019-05-06T19:30:06.317Z,99715.66
2019-05-06T19:32:39.347Z,99724.56
2019-05-06T19:35:13.077Z,99723.86
2019-05-06T19:37:45.533Z,99722.19
2019-05-06T19:40:18.002Z,99721.16
2019-05-06T19:42:52.974Z,99722.78
2019-05-06T19:45:23.072Z,99722.83
2019-05-06T19:47:54.777Z,99721.41
2019-05-06T19:50:28.046Z,99726.87
2019-05-06T19:53:02.771Z,99727.77
2019-05-06T19:55:36.283Z,99725.89
2019-05-06T19:58:08.096Z,99724.63
2019-05-06T20:00:42.753Z,99719.19
2019-05-06T20:03:16.058Z,99720.77
2019-05-06T20:05:54.440Z,99720.92
2019-05-06T20:08:37.392Z,99720.09
2019-05-06T20:11:13.451Z,99722.91
2019-05-06T20:13:45.156Z,99719.99
2019-05-06T20:16:20.215Z,99725.89
2019-05-06T20:18:52.570Z,99729.09
2019-05-06T20:21:26.644Z,99732.97
2019-05-06T20:23:58.706Z,99727.69
2019-05-06T20:26:32.387Z,99731.00
2019-05-06T20:29:05.181Z,99727.27
2019-05-06T20:31:36.785Z,99734.56
2019-05-06T20:34:08.376Z,99731.68
2019-05-06T20:36:41.852Z,99733.77
2019-05-06T20:39:14.429Z,99731.91
2019-05-06T20:41:46.003Z,99736.11
2019-05-06T20:44:17.551Z,99734.91
2019-05-06T20:46:49.100Z,99735.38
2019-05-06T20:49:20.565Z,99736.83
2019-05-06T20:51:52.299Z,99726.40
2019-05-06T20:54:23.999Z,99726.77
2019-05-06T20:56:55.465Z,99727.02
2019-05-06T20:59:26.998Z,99729.33
2019-05-06T21:01:58.542Z,99728.99
2019-05-06T21:04:32.330Z,99724.25
2019-05-06T21:07:03.208Z,99723.91
2019-05-06T21:09:34.877Z,99728.24
2019-05-06T21:12:09.442Z,99725.56
2019-05-06T21:14:42.086Z,99716.84
2019-05-06T21:17:13.950Z,99714.86
2019-05-06T21:19:45.537Z,99711.46
2019-05-06T21:22:17.169Z,99708.03
2019-05-06T21:24:49.718Z,99709.16
2019-05-06T21:27:23.021Z,99705.90
2019-05-06T21:29:54.744Z,99701.83
2019-05-06T21:32:26.378Z,99694.14
2019-05-06T21:34:59.426Z,99690.34
2019-05-06T21:37:32.357Z,99700.33
2019-05-06T21:40:06.187Z,99696.23
2019-05-06T21:42:38.464Z,99697.17
2019-05-06T21:45:12.394Z,99695.20
2019-05-06T21:47:46.417Z,99699.31
2019-05-06T21:50:16.940Z,99699.39
2019-05-06T21:52:48.484Z,99700.57
2019-05-06T21:55:20.077Z,99698.94
2019-05-06T21:57:52.957Z,99695.82
2019-05-06T22:00:26.773Z,99691.19
2019-05-06T22:03:02.290Z,99685.23
2019-05-06T22:05:33.046Z,99686.80
2019-05-06T22:08:06.618Z,99686.52
2019-05-06T22:10:38.086Z,99686.22
2019-05-06T22:13:09.605Z,99684.55
2019-05-06T22:15:42.662Z,99694.34
2019-05-06T22:18:14.229Z,99689.22
2019-05-06T22:21:03.422Z,99686.05
2019-05-06T22:23:55.360Z,99682.06
2019-05-06T22:26:28.209Z,99684.12
2019-05-06T22:29:01.897Z,99678.31
2019-05-06T22:31:33.665Z,99685.31
2019-05-06T22:34:06.911Z,99683.30
2019-05-06T22:36:38.463Z,99685.12
2019-05-06T22:39:12.058Z,99683.11
2019-05-06T22:41:44.037Z,99682.80
2019-05-06T22:44:17.113Z,99687.20
2019-05-06T22:46:49.421Z,99684.89
2019-05-06T22:49:22.580Z,99694.27
2019-05-06T22:51:54.213Z,99691.50
2019-05-06T22:54:26.183Z,99695.10
2019-05-06T22:56:57.725Z,99691.31
2019-05-06T22:59:32.845Z,99686.80
2019-05-06T23:02:22.585Z,99687.02
2019-05-06T23:04:59.671Z,99687.02
2019-05-06T23:07:34.169Z,99691.23
2019-05-06T23:10:10.933Z,99684.55
2019-05-06T23:12:43.414Z,99683.08
2019-05-06T23:15:20.878Z,99683.23
2019-05-06T23:17:52.737Z,99671.58
2019-05-06T23:20:24.616Z,99673.05
2019-05-06T23:22:56.262Z,99667.95
2019-05-06T23:25:29.335Z,99669.66
2019-05-06T23:28:02.796Z,99663.77
2019-05-06T23:30:35.248Z,99661.11
2019-05-06T23:33:06.915Z,99658.76
2019-05-06T23:35:38.414Z,99659.64
2019-05-06T23:38:46.046Z,99652.83
2019-05-06T23:41:53.858Z,99657.64
2019-05-06T23:45:02.522Z,99657.23
2019-05-06T23:48:12.144Z,99653.28
2019-05-06T23:51:22.204Z,99650.14
2019-05-06T23:54:28.872Z,99652.30
2019-05-06T23:56:59.162Z,99650.36
2019-05-06T23:59:32.220Z,99656.06
